Time;durP1;ratioP1;P1;durP2;ratioP2;P2;SDS_P1;SDS_P2;PMS_P1;PMS_P2;Temp;Humidity;BMP_temperature;BMP_pressure;BME280_temperature;BME280_humidity;BME280_pressure;Samples;Min_cycle;Max_cycle;Signal;HPM_P1;HPM_P2
2022/01/09 00:02:07;;;;;;;4.87;1.10;;;;;;;-0.89;61.27;99530.23;1762016;79;22229;-52
2022/01/09 00:04:34;;;;;;;2.70;1.20;;;;;;;-0.92;61.22;99519.23;1760288;79;21423;-52
2022/01/09 00:07:00;;;;;;;3.60;1.00;;;;;;;-0.91;61.23;99520.11;1756328;79;21828;-50
2022/01/09 00:09:28;;;;;;;2.67;0.80;;;;;;;-0.92;61.37;99520.55;1755734;79;22144;-51
2022/01/09 00:11:54;;;;;;;2.20;0.80;;;;;;;-0.91;61.43;99516.14;1754287;79;21422;-50
2022/01/09 00:14:20;;;;;;;2.30;0.90;;;;;;;-0.90;61.40;99521.87;1762312;79;20878;-51
2022/01/09 00:16:47;;;;;;;3.53;0.97;;;;;;;-0.89;61.29;99509.98;1756161;79;21404;-52
2022/01/09 00:19:13;;;;;;;5.17;1.13;;;;;;;-0.88;61.31;99505.13;1755834;80;21023;-51
2022/01/09 00:21:39;;;;;;;1.83;0.80;;;;;;;-0.87;61.33;99501.60;1756234;79;21348;-52
2022/01/09 00:24:06;;;;;;;2.43;1.10;;;;;;;-0.87;61.25;99500.28;1758445;80;22051;-52
2022/01/09 00:26:32;;;;;;;1.90;1.10;;;;;;;-0.87;61.26;99495.00;1754767;79;21455;-52
2022/01/09 00:28:58;;;;;;;3.57;1.07;;;;;;;-0.90;61.11;99488.40;1755462;79;21443;-51
2022/01/09 00:31:25;;;;;;;4.23;1.10;;;;;;;-0.90;61.16;99495.00;1751495;79;21098;-52
2022/01/09 00:33:51;;;;;;;4.03;1.10;;;;;;;-0.92;61.29;99498.53;1758172;79;20961;-50
2022/01/09 00:36:17;;;;;;;4.00;0.93;;;;;;;-0.92;61.27;99490.16;1756249;79;20914;-51
2022/01/09 00:38:44;;;;;;;3.97;1.20;;;;;;;-0.92;61.23;99493.25;1754322;79;20977;-51
2022/01/09 00:41:10;;;;;;;2.10;0.87;;;;;;;-0.92;61.25;99491.92;1754696;79;21036;-52
2022/01/09 00:43:36;;;;;;;2.13;1.00;;;;;;;-0.92;61.33;99490.61;1754709;79;21123;-50
2022/01/09 00:46:03;;;;;;;2.73;0.80;;;;;;;-0.92;61.32;99486.64;1752747;79;21123;-51
2022/01/09 00:48:30;;;;;;;2.83;0.90;;;;;;;-0.95;61.30;99481.40;1755879;79;21044;-51
2022/01/09 00:50:58;;;;;;;3.60;0.90;;;;;;;-0.93;61.34;99490.17;1760005;79;21119;-50
2022/01/09 00:53:24;;;;;;;3.80;1.03;;;;;;;-0.92;61.36;99478.72;1760372;79;21670;-50
2022/01/09 00:55:50;;;;;;;2.47;1.20;;;;;;;-0.90;61.48;99469.02;1755727;79;21708;-50
2022/01/09 00:58:17;;;;;;;6.80;0.83;;;;;;;-0.90;61.42;99463.30;1754773;79;21033;-51
2022/01/09 01:00:44;;;;;;;5.17;0.93;;;;;;;-0.89;61.65;99459.77;1757281;80;21024;-51
2022/01/09 01:03:10;;;;;;;2.40;0.77;;;;;;;-0.88;61.61;99454.92;1757390;80;21194;-51
2022/01/09 01:05:37;;;;;;;3.30;1.00;;;;;;;-0.87;61.80;99451.84;1761603;79;22145;-51
2022/01/09 01:08:04;;;;;;;1.30;0.83;;;;;;;-0.89;61.96;99455.81;1759979;79;21197;-50
2022/01/09 01:10:30;;;;;;;2.73;1.00;;;;;;;-0.93;62.21;99440.84;1762451;79;21032;-50
2022/01/09 01:12:56;;;;;;;3.90;0.87;;;;;;;-0.94;62.28;99437.80;1759805;80;21092;-51
2022/01/09 01:15:23;;;;;;;2.13;0.80;;;;;;;-0.96;62.53;99430.33;1759550;79;21072;-52
2022/01/09 01:17:49;;;;;;;2.27;0.70;;;;;;;-1.00;63.04;99429.89;1730465;81;21111;-51
2022/01/09 01:20:20;;;;;;;3.27;0.77;;;;;;;-1.05;63.34;99415.86;1759798;79;21458;-52
2022/01/09 01:22:45;;;;;;;2.53;0.90;;;;;;;-1.09;63.76;99412.78;1754009;80;21123;-51
2022/01/09 01:25:11;;;;;;;2.13;0.90;;;;;;;-1.10;64.08;99410.15;1755868;79;21064;-50
2022/01/09 01:27:37;;;;;;;3.17;0.80;;;;;;;-1.12;64.27;99405.34;1756567;79;21383;-50
2022/01/09 01:30:08;;;;;;;2.50;0.73;;;;;;;-1.15;64.42;99397.88;1760814;79;21103;-50
2022/01/09 01:32:36;;;;;;;2.23;0.87;;;;;;;-1.17;64.65;99401.41;1759953;79;21270;-51
2022/01/09 01:35:02;;;;;;;3.13;0.80;;;;;;;-1.18;64.85;99395.23;1757308;79;21365;-51
2022/01/09 01:37:30;;;;;;;1.70;0.70;;;;;;;-1.20;65.20;99400.13;1761356;79;21123;-51
2022/01/09 01:39:56;;;;;;;2.97;1.23;;;;;;;-1.24;65.61;99394.41;1760541;80;21497;-51
2022/01/09 01:42:22;;;;;;;2.30;0.70;;;;;;;-1.28;66.07;99390.05;1755903;79;20984;-52
2022/01/09 01:44:50;;;;;;;1.30;0.90;;;;;;;-1.32;66.46;99386.98;1753560;79;21088;-51
2022/01/09 01:47:20;;;;;;;3.17;0.90;;;;;;;-1.34;66.83;99379.06;1752123;79;21052;-51
2022/01/09 01:49:47;;;;;;;4.47;1.07;;;;;;;-1.33;67.17;99375.98;1754838;79;21119;-52
2022/01/09 01:52:18;;;;;;;3.10;0.90;;;;;;;-1.32;67.59;99373.34;1755287;79;20988;-52
2022/01/09 01:54:44;;;;;;;3.03;0.90;;;;;;;-1.35;67.98;99369.39;1749577;79;21083;-51
2022/01/09 01:57:10;;;;;;;3.40;1.17;;;;;;;-1.37;68.26;99368.99;1757971;79;22081;-52
2022/01/09 01:59:37;;;;;;;1.77;0.90;;;;;;;-1.39;68.54;99361.08;1754555;79;21131;-52
2022/01/09 02:02:04;;;;;;;2.13;1.00;;;;;;;-1.38;68.77;99356.67;1751221;79;21317;-51
2022/01/09 02:04:31;;;;;;;4.23;1.20;;;;;;;-1.42;68.96;99347.00;1758815;79;20895;-50
2022/01/09 02:06:58;;;;;;;2.60;1.00;;;;;;;-1.44;69.20;99346.13;1755846;79;21084;-52
2022/01/09 02:09:24;;;;;;;2.87;0.87;;;;;;;-1.46;69.43;99342.65;1752170;79;21554;-52
2022/01/09 02:11:51;;;;;;;3.30;1.10;;;;;;;-1.47;69.66;99342.21;1760992;79;20961;-51
2022/01/09 02:14:17;;;;;;;2.93;1.03;;;;;;;-1.50;69.81;99327.70;1755438;79;21508;-52
2022/01/09 02:16:44;;;;;;;2.93;1.10;;;;;;;-1.52;70.07;99325.95;1763773;79;21555;-51
2022/01/09 02:19:16;;;;;;;4.30;0.90;;;;;;;-1.51;70.28;99328.14;1761738;79;21555;-50
2022/01/09 02:21:44;;;;;;;2.80;0.90;;;;;;;-1.53;70.45;99316.27;1761474;79;21946;-51
2022/01/09 02:24:14;;;;;;;3.60;0.90;;;;;;;-1.55;70.64;99311.47;1761663;79;21031;-51
2022/01/09 02:26:41;;;;;;;2.10;1.10;;;;;;;-1.57;70.85;99311.03;1762234;79;21533;-50
2022/01/09 02:29:07;;;;;;;3.70;1.10;;;;;;;-1.58;71.09;99311.48;1768126;79;21551;-51
2022/01/09 02:31:35;;;;;;;3.97;1.17;;;;;;;-1.57;71.26;99311.03;1766472;79;21111;-51
2022/01/09 02:34:01;;;;;;;4.53;1.20;;;;;;;-1.57;71.45;99308.39;1765148;79;21016;-52
2022/01/09 02:36:28;;;;;;;4.17;1.60;;;;;;;-1.58;71.62;99307.96;1761861;79;21482;-51
2022/01/09 02:38:54;;;;;;;8.17;1.23;;;;;;;-1.61;71.75;99303.57;1764337;79;21516;-51
2022/01/09 02:41:20;;;;;;;4.23;1.43;;;;;;;-1.59;71.91;99296.97;1759310;79;21041;-51
2022/01/09 02:43:47;;;;;;;3.67;1.40;;;;;;;-1.59;72.11;99290.37;1761326;79;21092;-51
2022/01/09 02:48:50;;;;;;;5.03;1.10;;;;;;;-1.58;72.32;99296.96;1753221;80;21016;-50
2022/01/09 02:51:18;;;;;;;4.97;1.40;;;;;;;-1.56;72.42;99289.04;1750551;79;21514;-52
2022/01/09 02:53:47;;;;;;;7.73;1.50;;;;;;;-1.56;72.54;99286.40;1762137;79;21522;-52
2022/01/09 02:56:13;;;;;;;3.60;1.07;;;;;;;-1.57;72.65;99280.69;1751820;79;21030;-51
2022/01/09 02:58:41;;;;;;;4.60;1.40;;;;;;;-1.58;72.72;99275.84;1758192;79;21089;-52
2022/01/09 03:01:09;;;;;;;3.87;1.73;;;;;;;-1.57;72.81;99277.60;1756916;79;21526;-50
2022/01/09 03:03:36;;;;;;;4.37;1.60;;;;;;;-1.58;72.89;99274.53;1757478;79;21009;-49
2022/01/09 03:06:03;;;;;;;4.37;1.37;;;;;;;-1.59;72.97;99278.05;1760596;80;21030;-50
2022/01/09 03:08:30;;;;;;;3.50;1.10;;;;;;;-1.60;73.08;99275.42;1765730;79;20891;-49
2022/01/09 03:10:56;;;;;;;4.10;1.47;;;;;;;-1.63;73.20;99264.47;1760432;79;21035;-49
2022/01/09 03:13:22;;;;;;;6.47;1.70;;;;;;;-1.62;73.28;99267.98;1755650;79;20937;-50
2022/01/09 03:15:49;;;;;;;6.70;1.63;;;;;;;-1.63;73.32;99257.86;1764835;79;20909;-50
2022/01/09 03:18:17;;;;;;;3.23;1.20;;;;;;;-1.62;73.40;99260.06;1764434;79;20966;-50
2022/01/09 03:20:43;;;;;;;3.57;1.97;;;;;;;-1.63;73.43;99252.59;1739612;81;21015;-50
2022/01/09 03:23:09;;;;;;;7.03;2.20;;;;;;;-1.63;73.50;99248.63;1745730;81;21689;-51
2022/01/09 03:25:37;;;;;;;5.40;1.83;;;;;;;-1.64;73.54;99250.83;1737081;81;20936;-50
2022/01/09 03:28:04;;;;;;;7.50;1.43;;;;;;;-1.66;73.58;99247.32;1784902;78;20931;-50
2022/01/09 03:30:30;;;;;;;5.23;2.03;;;;;;;-1.68;73.66;99246.89;1764348;81;21399;-52
2022/01/09 03:32:57;;;;;;;3.50;1.57;;;;;;;-1.69;73.72;99245.13;1766431;79;21339;-51
2022/01/09 03:35:24;;;;;;;6.63;2.30;;;;;;;-1.69;73.75;99241.17;1765224;80;21102;-51
2022/01/09 03:37:52;;;;;;;7.50;2.40;;;;;;;-1.70;73.91;99238.13;1741302;80;20940;-51
2022/01/09 03:40:21;;;;;;;6.90;2.00;;;;;;;-1.69;73.95;99230.18;1734988;80;20953;-51
2022/01/09 03:42:49;;;;;;;6.37;2.40;;;;;;;-1.69;73.97;99230.63;1760230;79;21050;-50
2022/01/09 03:45:15;;;;;;;7.87;2.20;;;;;;;-1.70;73.95;99228.42;1764797;79;21034;-50
2022/01/09 03:47:42;;;;;;;7.80;2.00;;;;;;;-1.72;73.99;99233.30;1760732;79;21191;-52
2022/01/09 03:50:10;;;;;;;8.97;1.80;;;;;;;-1.75;74.05;99221.00;1761304;79;21080;-50
2022/01/09 03:52:38;;;;;;;7.73;2.07;;;;;;;-1.74;74.09;99228.47;1758097;79;21665;-52
2022/01/09 03:55:09;;;;;;;6.90;2.27;;;;;;;-1.74;74.08;99225.83;1763496;79;21051;-50
2022/01/09 03:57:35;;;;;;;6.13;1.50;;;;;;;-1.75;74.18;99224.95;1761626;79;21318;-49
2022/01/09 04:00:01;;;;;;;5.90;1.97;;;;;;;-1.75;74.17;99230.23;1734410;81;21083;-51
2022/01/09 04:02:28;;;;;;;5.30;2.27;;;;;;;-1.75;74.14;99221.00;1735923;80;21119;-48
2022/01/09 04:04:54;;;;;;;5.37;2.07;;;;;;;-1.75;74.18;99223.64;1761584;80;21054;-50
2022/01/09 04:07:20;;;;;;;8.33;2.27;;;;;;;-1.75;74.20;99218.36;1760607;79;21052;-48
2022/01/09 04:09:48;;;;;;;10.10;3.27;;;;;;;-1.73;74.21;99215.72;1769081;79;21103;-49
2022/01/09 04:12:18;;;;;;;5.90;1.97;;;;;;;-1.74;74.25;99208.69;1755502;79;22542;-52
2022/01/09 04:14:48;;;;;;;7.87;2.30;;;;;;;-1.73;74.20;99214.39;1766059;79;21030;-49
2022/01/09 04:17:27;;;;;;;8.00;1.97;;;;;;;-1.77;74.25;99202.98;1758155;79;21095;-49
2022/01/09 04:21:12;;;;;;;5.30;2.63;;;;;;;-1.76;74.33;99205.17;1839391;75;27248;-51
2022/01/09 04:23:39;;;;;;;7.47;2.50;;;;;;;-1.82;74.43;99197.31;1851621;77;21093;-50
2022/01/09 04:26:05;;;;;;;7.57;2.50;;;;;;;-1.81;74.40;99193.80;1845503;75;22060;-48
2022/01/09 04:28:33;;;;;;;6.27;2.43;;;;;;;-1.83;74.46;99186.33;1852778;75;20962;-48
2022/01/09 04:30:59;;;;;;;10.47;2.40;;;;;;;-1.85;74.50;99187.66;1845543;75;21411;-50
2022/01/09 04:33:25;;;;;;;5.47;2.00;;;;;;;-1.84;74.51;99188.09;1845738;75;20941;-51
2022/01/09 04:35:51;;;;;;;7.83;1.63;;;;;;;-1.84;74.58;99184.57;1852363;75;21097;-50
2022/01/09 04:38:18;;;;;;;6.00;1.53;;;;;;;-1.85;74.64;99177.10;1846735;75;21752;-50
2022/01/09 04:40:44;;;;;;;6.43;3.03;;;;;;;-1.85;74.65;99174.46;1846372;77;21462;-50
2022/01/09 04:43:12;;;;;;;8.50;2.03;;;;;;;-1.85;74.72;99174.91;1847607;75;21017;-52
2022/01/09 04:45:39;;;;;;;8.53;3.13;;;;;;;-1.85;74.82;99175.78;1846421;75;21494;-51
2022/01/09 04:48:08;;;;;;;9.07;2.23;;;;;;;-1.85;74.82;99171.83;1849951;77;21053;-48
2022/01/09 04:50:36;;;;;;;7.90;2.47;;;;;;;-1.84;74.92;99168.30;1850272;76;21070;-51
2022/01/09 04:53:05;;;;;;;6.30;1.70;;;;;;;-1.83;74.93;99160.83;1847612;75;21026;-50
2022/01/09 04:55:41;;;;;;;9.70;2.67;;;;;;;-1.80;74.97;99163.45;1848947;75;22326;-50
2022/01/09 04:58:08;;;;;;;7.43;2.60;;;;;;;-1.81;75.01;99157.73;1812975;77;21391;-52
2022/01/09 05:00:35;;;;;;;8.20;2.00;;;;;;;-1.83;75.03;99150.27;1814358;77;21076;-48
2022/01/09 05:03:02;;;;;;;7.97;2.63;;;;;;;-1.85;75.13;99145.45;1815904;77;21371;-52
2022/01/09 05:05:29;;;;;;;7.60;2.27;;;;;;;-1.86;75.22;99137.09;1815725;77;21085;-49
2022/01/09 05:07:55;;;;;;;9.93;2.73;;;;;;;-1.86;75.30;99146.33;1812645;77;21041;-50
2022/01/09 05:10:22;;;;;;;10.90;3.27;;;;;;;-1.88;75.33;99139.34;1818158;77;21035;-52
2022/01/09 05:12:48;;;;;;;6.63;2.93;;;;;;;-1.88;75.46;99139.34;1810877;77;21013;-49
2022/01/09 05:15:16;;;;;;;7.47;2.43;;;;;;;-1.87;75.51;99134.50;1813819;78;21908;-49
2022/01/09 05:17:42;;;;;;;10.53;3.10;;;;;;;-1.88;75.60;99138.02;1778098;78;21035;-49
2022/01/09 05:20:10;;;;;;;8.90;2.83;;;;;;;-1.87;75.68;99146.37;1750133;80;21132;-48
2022/01/09 05:22:36;;;;;;;7.40;2.27;;;;;;;-1.89;75.67;99146.38;1746809;80;21005;-53
2022/01/09 05:25:06;;;;;;;6.07;2.20;;;;;;;-1.90;75.77;99139.34;1754290;80;21113;-52
2022/01/09 05:27:33;;;;;;;5.30;2.27;;;;;;;-1.89;75.88;99141.09;1748804;80;21825;-49
2022/01/09 05:29:59;;;;;;;9.30;2.93;;;;;;;-1.87;75.92;99138.45;1747277;80;21389;-49
2022/01/09 05:32:25;;;;;;;6.27;2.43;;;;;;;-1.86;75.96;99125.22;1753611;80;21841;-48
2022/01/09 05:34:52;;;;;;;6.37;2.30;;;;;;;-1.85;75.95;99127.42;1749299;80;21060;-50
2022/01/09 05:37:18;;;;;;;8.50;2.53;;;;;;;-1.86;76.03;99121.71;1777066;78;21064;-50
2022/01/09 05:39:44;;;;;;;7.57;2.47;;;;;;;-1.86;76.08;99113.80;1774800;78;21428;-52
2022/01/09 05:42:12;;;;;;;7.13;2.77;;;;;;;-1.86;76.13;99126.98;1777226;78;21803;-50
2022/01/09 05:44:39;;;;;;;7.73;2.47;;;;;;;-1.86;76.18;99121.27;1776652;78;21472;-50
2022/01/09 05:47:05;;;;;;;6.67;2.70;;;;;;;-1.85;76.25;99112.47;1776855;78;21377;-49
2022/01/09 05:49:32;;;;;;;6.27;2.07;;;;;;;-1.84;76.25;99111.58;1770620;78;21077;-50
2022/01/09 05:51:58;;;;;;;3.43;1.80;;;;;;;-1.85;76.31;99104.55;1776973;78;21133;-50
2022/01/09 05:54:24;;;;;;;7.87;2.47;;;;;;;-1.85;76.36;99098.41;1776044;78;21487;-50
2022/01/09 05:56:51;;;;;;;6.57;2.37;;;;;;;-1.84;76.50;99096.20;1779445;78;21064;-52
2022/01/09 05:59:19;;;;;;;6.27;2.63;;;;;;;-1.83;76.51;99098.83;1744442;80;21079;-49
2022/01/09 06:01:46;;;;;;;9.27;2.93;;;;;;;-1.83;76.49;99089.59;1772992;78;21037;-49
2022/01/09 06:04:12;;;;;;;6.53;2.40;;;;;;;-1.84;76.58;99086.52;1780647;78;21146;-51
2022/01/09 06:06:39;;;;;;;7.57;2.50;;;;;;;-1.84;76.62;99079.92;1775550;78;20894;-49
2022/01/09 06:09:05;;;;;;;6.33;1.97;;;;;;;-1.84;76.68;99079.92;1778783;78;20901;-52
2022/01/09 06:11:32;;;;;;;11.53;2.73;;;;;;;-1.83;76.73;99080.36;1778225;78;21329;-50
2022/01/09 06:13:58;;;;;;;5.23;2.40;;;;;;;-1.82;76.76;99078.60;1777368;78;20879;-50
2022/01/09 06:16:25;;;;;;;6.00;2.07;;;;;;;-1.82;76.85;99075.97;1777644;78;21110;-50
2022/01/09 06:18:51;;;;;;;6.47;2.47;;;;;;;-1.81;76.91;99070.68;1772792;78;20976;-49
2022/01/09 06:21:18;;;;;;;6.77;2.90;;;;;;;-1.80;76.97;99068.92;1778252;78;20929;-50
2022/01/09 06:23:44;;;;;;;7.47;2.90;;;;;;;-1.77;77.03;99071.50;1781020;78;20878;-49
2022/01/09 06:26:11;;;;;;;8.47;2.53;;;;;;;-1.75;77.05;99076.33;1776664;78;20878;-50
2022/01/09 06:28:37;;;;;;;9.33;3.17;;;;;;;-1.76;77.09;99074.58;1749708;80;21051;-50
2022/01/09 06:31:04;;;;;;;7.07;2.60;;;;;;;-1.78;77.17;99078.98;1749830;80;20902;-51
2022/01/09 06:33:30;;;;;;;8.60;2.30;;;;;;;-1.76;77.29;99077.22;1744318;80;20865;-49
2022/01/09 06:35:57;;;;;;;7.57;3.07;;;;;;;-1.74;77.35;99078.95;1761572;79;20906;-50
2022/01/09 06:38:23;;;;;;;7.43;3.43;;;;;;;-1.72;77.39;99075.87;1777950;78;20965;-50
2022/01/09 06:40:49;;;;;;;8.43;3.07;;;;;;;-1.69;77.42;99075.81;1770165;78;21314;-49
2022/01/09 06:43:15;;;;;;;10.70;3.13;;;;;;;-1.69;77.38;99073.62;1781074;78;20958;-48
2022/01/09 06:45:42;;;;;;;5.97;2.07;;;;;;;-1.69;77.39;99077.58;1770748;79;21025;-51
2022/01/09 06:48:09;;;;;;;9.83;2.90;;;;;;;-1.68;77.44;99082.84;1775248;79;21129;-49
2022/01/09 06:50:35;;;;;;;8.23;3.17;;;;;;;-1.67;77.51;99070.53;1751249;80;21080;-49
2022/01/09 06:53:02;;;;;;;10.33;2.87;;;;;;;-1.64;77.48;99073.14;1753635;80;21156;-48
2022/01/09 06:55:28;;;;;;;6.63;2.70;;;;;;;-1.63;77.47;99067.86;1760666;78;21044;-50
2022/01/09 06:57:55;;;;;;;11.87;3.07;;;;;;;-1.61;77.45;99068.69;1779574;78;21116;-50
2022/01/09 07:00:22;;;;;;;5.67;2.57;;;;;;;-1.60;77.44;99064.30;1773660;78;21066;-51
2022/01/09 07:02:48;;;;;;;6.53;2.53;;;;;;;-1.59;77.45;99062.96;1776724;78;21028;-52
2022/01/09 07:05:15;;;;;;;8.03;2.87;;;;;;;-1.57;77.41;99062.51;1779331;79;23289;-50
2022/01/09 07:07:42;;;;;;;5.67;3.23;;;;;;;-1.57;77.39;99061.19;1781861;78;21096;-50
2022/01/09 07:10:11;;;;;;;12.93;3.47;;;;;;;-1.54;77.41;99057.20;1776000;78;21127;-49
2022/01/09 07:12:39;;;;;;;7.90;3.23;;;;;;;-1.53;77.40;99051.45;1775559;78;20977;-49
2022/01/09 07:15:06;;;;;;;7.53;2.80;;;;;;;-1.51;77.37;99040.44;1776669;78;21494;-51
2022/01/09 07:17:32;;;;;;;6.43;2.00;;;;;;;-1.50;77.42;99032.08;1779054;78;21105;-51
2022/01/09 07:19:59;;;;;;;5.33;2.37;;;;;;;-1.50;77.36;99036.03;1773625;78;21037;-50
2022/01/09 07:22:27;;;;;;;7.87;2.57;;;;;;;-1.49;77.36;99036.03;1784124;79;20977;-49
2022/01/09 07:24:54;;;;;;;3.67;2.27;;;;;;;-1.49;77.34;99032.06;1782641;78;21081;-49
2022/01/09 07:27:20;;;;;;;6.70;3.73;;;;;;;-1.48;77.35;99024.58;1750250;80;21146;-48
2022/01/09 07:29:46;;;;;;;8.27;3.17;;;;;;;-1.47;77.33;99026.33;1749945;80;23350;-50
2022/01/09 07:32:12;;;;;;;6.43;2.27;;;;;;;-1.47;77.35;99026.77;1754525;79;21087;-50
2022/01/09 07:34:39;;;;;;;6.03;2.53;;;;;;;-1.47;77.38;99016.22;1749906;80;21104;-49
2022/01/09 07:37:06;;;;;;;7.07;2.87;;;;;;;-1.47;77.41;99018.86;1751280;81;21037;-49
2022/01/09 07:39:32;;;;;;;6.47;2.87;;;;;;;-1.46;77.46;99014.89;1752287;80;21044;-49
2022/01/09 07:41:59;;;;;;;6.73;3.00;;;;;;;-1.45;77.37;99015.31;1758124;79;23087;-50
2022/01/09 07:44:26;;;;;;;10.60;3.07;;;;;;;-1.43;77.40;99018.79;1756128;79;20958;-51
2022/01/09 07:46:52;;;;;;;5.57;3.17;;;;;;;-1.41;77.34;99024.05;1779042;78;21111;-49
2022/01/09 07:49:19;;;;;;;9.77;3.30;;;;;;;-1.40;77.33;99013.48;1782866;78;21013;-48
2022/01/09 07:51:45;;;;;;;5.57;2.53;;;;;;;-1.38;77.33;99016.11;1780632;78;21117;-48
2022/01/09 07:54:12;;;;;;;6.20;3.40;;;;;;;-1.37;77.33;99013.45;1764412;79;21138;-49
2022/01/09 07:56:39;;;;;;;7.37;3.00;;;;;;;-1.35;77.30;99006.37;1781260;79;21034;-49
2022/01/09 07:59:06;;;;;;;7.07;2.13;;;;;;;-1.33;77.31;99005.91;1774606;80;21025;-50
2022/01/09 08:01:33;;;;;;;4.90;2.20;;;;;;;-1.31;77.31;99004.13;1775885;79;21025;-49
2022/01/09 08:03:59;;;;;;;6.17;3.07;;;;;;;-1.29;77.27;99001.48;1773919;79;21112;-49
2022/01/09 08:06:26;;;;;;;10.47;5.43;;;;;;;-1.26;77.22;98998.77;1761126;80;21060;-49
2022/01/09 08:08:52;;;;;;;7.47;3.33;;;;;;;-1.25;77.15;98988.20;1760948;79;21071;-49
2022/01/09 08:11:18;;;;;;;6.50;2.57;;;;;;;-1.22;77.12;98996.54;1753110;80;21064;-50
2022/01/09 08:13:44;;;;;;;10.53;3.53;;;;;;;-1.22;77.06;98993.45;1780004;79;21077;-50
2022/01/09 08:16:12;;;;;;;7.73;3.67;;;;;;;-1.18;77.04;98992.95;1754287;79;21056;-50
2022/01/09 08:18:38;;;;;;;6.77;3.83;;;;;;;-1.15;77.02;98992.47;1756694;79;22360;-50
2022/01/09 08:21:05;;;;;;;9.87;4.67;;;;;;;-1.11;76.97;98984.52;1784072;78;21510;-50
2022/01/09 08:23:31;;;;;;;6.97;3.63;;;;;;;-1.09;76.89;98990.19;1752671;78;21022;-50
2022/01/09 08:25:57;;;;;;;5.70;3.57;;;;;;;-1.06;76.85;98990.16;1780367;78;21077;-51
2022/01/09 08:28:24;;;;;;;9.47;4.83;;;;;;;-1.03;76.80;98985.28;1789785;78;21084;-50
2022/01/09 08:30:50;;;;;;;8.33;4.63;;;;;;;-1.03;76.70;98986.16;1753737;81;21143;-50
2022/01/09 08:33:17;;;;;;;9.60;5.20;;;;;;;-1.00;76.69;98978.17;1752611;80;21041;-51
2022/01/09 08:35:43;;;;;;;10.57;4.07;;;;;;;-0.98;76.68;98971.55;1779386;78;21058;-52
2022/01/09 08:38:10;;;;;;;8.20;4.40;;;;;;;-0.96;76.66;98969.32;1746986;80;21060;-50
2022/01/09 08:40:36;;;;;;;10.13;5.03;;;;;;;-0.94;76.52;98977.23;1772918;78;21377;-50
2022/01/09 08:43:02;;;;;;;8.67;5.43;;;;;;;-0.96;76.46;98965.36;1755715;80;21124;-50
2022/01/09 08:45:29;;;;;;;12.00;6.07;;;;;;;-0.96;76.44;98963.16;1779332;78;21120;-50
2022/01/09 08:47:55;;;;;;;10.50;5.17;;;;;;;-0.97;76.46;98961.41;1770314;78;21019;-51
2022/01/09 08:50:22;;;;;;;10.67;5.97;;;;;;;-0.96;76.46;98955.23;1774789;79;21054;-50
2022/01/09 08:52:49;;;;;;;11.03;6.27;;;;;;;-0.94;76.48;98953.45;1779945;79;21038;-50
2022/01/09 08:55:16;;;;;;;9.03;5.67;;;;;;;-0.92;76.40;98943.71;1744450;80;22149;-50
2022/01/09 08:57:42;;;;;;;7.63;5.03;;;;;;;-0.92;76.34;98941.07;1746246;80;21049;-50
2022/01/09 09:00:10;;;;;;;12.13;6.07;;;;;;;-0.92;76.33;98934.02;1748630;80;21311;-49
2022/01/09 09:02:37;;;;;;;13.20;7.00;;;;;;;-0.90;76.31;98935.32;1752353;80;21705;-49
2022/01/09 09:05:05;;;;;;;15.23;7.50;;;;;;;-0.89;76.29;98932.66;1751864;80;22059;-49
2022/01/09 09:07:32;;;;;;;10.30;5.93;;;;;;;-0.85;76.29;98934.82;1747896;80;21077;-50
2022/01/09 09:10:03;;;;;;;13.90;8.47;;;;;;;-0.83;76.24;98924.63;1747921;80;20875;-50
2022/01/09 09:12:27;;;;;;;16.00;8.10;;;;;;;-0.81;76.22;98912.28;1753481;80;20945;-51
2022/01/09 09:14:54;;;;;;;13.03;7.03;;;;;;;-0.77;76.27;98913.11;1750962;80;20942;-50
2022/01/09 09:17:20;;;;;;;14.73;7.47;;;;;;;-0.72;76.27;98903.77;1747535;80;21061;-50
2022/01/09 09:19:46;;;;;;;14.17;7.00;;;;;;;-0.72;76.30;98903.77;1746128;80;21094;-50
2022/01/09 09:22:13;;;;;;;11.17;7.13;;;;;;;-0.71;76.33;98897.59;1732362;80;21234;-49
2022/01/09 09:24:40;;;;;;;20.53;8.40;;;;;;;-0.69;76.37;98886.55;1741704;81;20903;-50
2022/01/09 09:27:07;;;;;;;12.03;6.17;;;;;;;-0.66;76.41;98879.87;1736930;81;21383;-50
2022/01/09 09:29:33;;;;;;;17.20;7.10;;;;;;;-0.66;76.43;98872.82;1736787;81;20905;-51
2022/01/09 09:32:01;;;;;;;15.97;7.93;;;;;;;-0.64;76.50;98875.45;1737636;81;20980;-50
2022/01/09 09:34:27;;;;;;;17.37;8.10;;;;;;;-0.63;76.53;98874.10;1732142;81;21127;-49
2022/01/09 09:36:53;;;;;;;11.13;6.77;;;;;;;-0.61;76.64;98870.98;1728926;81;21158;-51
2022/01/09 09:39:20;;;;;;;14.27;8.27;;;;;;;-0.57;76.79;98872.66;1733406;81;21124;-50
2022/01/09 09:41:46;;;;;;;14.53;8.20;;;;;;;-0.55;76.80;98872.64;1734401;81;21501;-51
2022/01/09 09:44:13;;;;;;;11.13;6.67;;;;;;;-0.53;76.78;98880.10;1739427;81;21195;-50
2022/01/09 09:46:39;;;;;;;16.90;7.67;;;;;;;-0.51;76.85;98878.31;1737192;81;21447;-50
2022/01/09 09:49:06;;;;;;;12.20;7.50;;;;;;;-0.48;76.81;98878.23;1732124;81;21097;-50
2022/01/09 09:51:32;;;;;;;13.23;8.00;;;;;;;-0.49;76.65;98869.43;1734748;81;21060;-51
2022/01/09 09:53:59;;;;;;;14.20;7.67;;;;;;;-0.49;76.55;98879.13;1736760;81;21129;-51
2022/01/09 09:56:25;;;;;;;16.13;8.67;;;;;;;-0.51;76.49;98876.98;1730385;81;21112;-50
2022/01/09 09:58:52;;;;;;;16.03;7.93;;;;;;;-0.53;76.47;98871.72;1733612;81;21113;-51
2022/01/09 10:01:28;;;;;;;12.50;6.37;;;;;;;-0.54;76.50;98866.45;1729505;81;22357;-51
2022/01/09 10:04:04;;;;;;;15.97;8.10;;;;;;;-0.56;76.51;98858.55;1734882;81;21134;-51
2022/01/09 10:06:48;;;;;;;13.47;6.77;;;;;;;-0.56;76.49;98861.19;1734410;81;21072;-50
2022/01/09 10:09:22;;;;;;;13.07;6.57;;;;;;;-0.57;76.43;98854.16;1735135;81;21146;-52
2022/01/09 10:12:04;;;;;;;11.00;6.33;;;;;;;-0.57;76.42;98850.64;1733795;80;21672;-50
2022/01/09 10:14:33;;;;;;;13.63;7.83;;;;;;;-0.59;76.37;98840.09;1737949;81;21044;-51
2022/01/09 10:17:24;;;;;;;13.67;7.60;;;;;;;-0.59;76.37;98845.38;1732447;81;21112;-50
2022/01/09 10:19:58;;;;;;;11.83;7.13;;;;;;;-0.59;76.37;98847.15;1734930;81;21600;-51
2022/01/09 10:22:40;;;;;;;13.07;6.93;;;;;;;-0.58;76.36;98834.36;1735553;80;21700;-51
2022/01/09 10:25:33;;;;;;;10.27;6.80;;;;;;;-0.57;76.36;98836.98;1753395;80;21061;-51
2022/01/09 10:28:12;;;;;;;9.87;6.43;;;;;;;-0.56;76.33;98828.16;1762432;80;21108;-51
2022/01/09 10:30:52;;;;;;;13.23;7.63;;;;;;;-0.54;76.24;98826.36;1778924;79;21448;-51
2022/01/09 10:33:24;;;;;;;12.57;6.83;;;;;;;-0.54;76.20;98826.36;1746404;80;21053;-51
2022/01/09 10:35:50;;;;;;;9.17;6.17;;;;;;;-0.53;76.19;98821.95;1748091;80;23320;-52
2022/01/09 10:38:22;;;;;;;12.53;6.73;;;;;;;-0.51;76.20;98822.80;1748917;80;21068;-51
2022/01/09 10:40:53;;;;;;;10.67;7.53;;;;;;;-0.49;76.13;98815.23;1748249;80;21037;-51
2022/01/09 10:43:25;;;;;;;13.57;6.80;;;;;;;-0.48;76.07;98824.05;1752098;81;21392;-52
2022/01/09 10:45:59;;;;;;;10.17;5.90;;;;;;;-0.50;76.13;98820.09;1752105;81;21080;-51
2022/01/09 10:48:39;;;;;;;12.53;7.30;;;;;;;-0.49;76.09;98817.88;1749139;80;21096;-50
2022/01/09 10:51:09;;;;;;;13.73;7.50;;;;;;;-0.50;76.13;98809.52;1746463;80;21357;-51
2022/01/09 10:53:38;;;;;;;15.07;8.33;;;;;;;-0.51;76.16;98806.94;1754480;80;21481;-51
2022/01/09 10:56:15;;;;;;;13.93;6.93;;;;;;;-0.50;76.21;98800.72;1747274;80;21197;-50
2022/01/09 10:58:48;;;;;;;14.20;7.57;;;;;;;-0.48;76.25;98802.45;1750020;80;21680;-51
2022/01/09 11:01:30;;;;;;;11.33;6.13;;;;;;;-0.46;76.27;98800.66;1751003;80;21099;-52
2022/01/09 11:04:00;;;;;;;7.10;4.33;;;;;;;-0.43;76.31;98794.44;1752131;80;21119;-50
2022/01/09 11:06:30;;;;;;;11.77;7.67;;;;;;;-0.40;76.31;98791.27;1748876;80;21379;-50
2022/01/09 11:08:56;;;;;;;11.83;7.23;;;;;;;-0.39;76.26;98788.17;1755131;80;21518;-50
2022/01/09 11:11:38;;;;;;;10.20;5.90;;;;;;;-0.38;76.24;98789.92;1748493;80;21043;-52
2022/01/09 11:14:05;;;;;;;11.70;6.83;;;;;;;-0.35;76.32;98783.71;1736523;81;21740;-51
2022/01/09 11:16:32;;;;;;;12.03;7.37;;;;;;;-0.33;76.46;98776.59;1744976;81;21092;-50
2022/01/09 11:19:17;;;;;;;12.80;7.23;;;;;;;-0.28;76.53;98777.39;1748663;80;21116;-50
2022/01/09 11:21:47;;;;;;;15.23;7.78;;;;;;;-0.26;76.57;98775.15;1741145;80;21714;-52
2022/01/09 11:24:46;;;;;;;16.70;7.33;;;;;;;-0.21;76.60;98775.91;1751288;80;21088;-52
2022/01/09 11:27:44;;;;;;;9.23;5.23;;;;;;;-0.20;76.53;98777.66;1747648;80;23267;-51
2022/01/09 11:30:40;;;;;;;13.13;6.93;;;;;;;-0.19;76.62;98775.88;1752931;80;21965;-54
2022/01/09 11:33:31;;;;;;;15.17;7.17;;;;;;;-0.20;76.63;98778.98;1743059;80;21226;-54
2022/01/09 11:36:21;;;;;;;16.60;8.97;;;;;;;-0.23;76.75;98776.83;1745983;80;21611;-52
2022/01/09 11:39:02;;;;;;;13.80;8.13;;;;;;;-0.23;76.86;98777.70;1746392;80;20910;-52
2022/01/09 11:41:31;;;;;;;13.97;7.83;;;;;;;-0.22;76.92;98768.88;1747589;80;22239;-53